Time;durP1;ratioP1;P1;durP2;ratioP2;P2;SDS_P1;SDS_P2;PMS_P1;PMS_P2;Temp;Humidity;BMP_temperature;BMP_pressure;BME280_temperature;BME280_humidity;BME280_pressure;Samples;Min_cycle;Max_cycle;Signal;HPM_P1;HPM_P2
2021/05/16 00:00:02;;;;;;;12.52;5.82;;;;;;;;;;4858580;29;20034;-70
2021/05/16 00:02:28;;;;;;;9.00;5.20;;;;;;;;;;4858606;29;20037;-75
2021/05/16 00:04:54;;;;;;;8.38;5.88;;;;;;;;;;4858314;29;20112;-74
2021/05/16 00:07:20;;;;;;;8.20;5.63;;;;;;;;;;4858672;29;20038;-74
2021/05/16 00:09:46;;;;;;;8.93;5.80;;;;;;;;;;4858205;29;20504;-75
2021/05/16 00:12:12;;;;;;;10.13;6.10;;;;;;;;;;4858447;29;20402;-76
2021/05/16 00:14:39;;;;;;;13.07;5.72;;;;;;;;;;4858727;29;20022;-72
2021/05/16 00:17:05;;;;;;;7.55;5.32;;;;;;;;;;4858278;29;20029;-66
2021/05/16 00:19:32;;;;;;;9.30;6.03;;;;;;;;;;4858458;29;20040;-65
2021/05/16 00:21:59;;;;;;;11.32;6.10;;;;;;;;;;4858018;29;20054;-62
2021/05/16 00:24:25;;;;;;;10.52;6.40;;;;;;;;;;4858479;29;20120;-63
2021/05/16 00:26:51;;;;;;;8.25;5.85;;;;;;;;;;4858011;29;20053;-70
2021/05/16 00:29:17;;;;;;;10.30;6.57;;;;;;;;;;4858386;29;20113;-73
2021/05/16 00:31:43;;;;;;;9.35;5.88;;;;;;;;;;4858165;29;20026;-60
2021/05/16 00:34:09;;;;;;;10.05;6.38;;;;;;;;;;4858290;29;20029;-67
2021/05/16 00:36:35;;;;;;;8.90;5.90;;;;;;;;;;4858199;29;20026;-65
2021/05/16 00:39:02;;;;;;;13.13;6.20;;;;;;;;;;4841040;29;20029;-67
2021/05/16 00:41:28;;;;;;;11.52;6.28;;;;;;;;;;4858073;29;20045;-66
2021/05/16 00:43:54;;;;;;;8.05;5.85;;;;;;;;;;4858065;29;20112;-73
2021/05/16 00:46:20;;;;;;;8.93;6.25;;;;;;;;;;4858033;29;20040;-68
2021/05/16 00:48:46;;;;;;;9.27;6.18;;;;;;;;;;4858046;29;20025;-63
2021/05/16 00:51:12;;;;;;;14.85;10.38;;;;;;;;;;4858467;29;20078;-63
2021/05/16 00:53:38;;;;;;;10.98;6.90;;;;;;;;;;4861700;29;20394;-60
2021/05/16 00:56:05;;;;;;;9.63;6.43;;;;;;;;;;4861748;29;20033;-61
2021/05/16 00:58:31;;;;;;;11.43;6.50;;;;;;;;;;4861560;29;20030;-71
2021/05/16 01:00:57;;;;;;;10.52;6.10;;;;;;;;;;4861415;29;20037;-75
2021/05/16 01:03:24;;;;;;;10.63;6.40;;;;;;;;;;4861480;29;20033;-62
2021/05/16 01:05:50;;;;;;;9.05;5.80;;;;;;;;;;4861582;29;20029;-65
2021/05/16 01:08:17;;;;;;;10.15;6.00;;;;;;;;;;4861343;29;20025;-75
2021/05/16 01:10:44;;;;;;;9.25;5.82;;;;;;;;;;4861651;29;20053;-74
2021/05/16 01:13:11;;;;;;;12.57;5.35;;;;;;;;;;4863379;29;20030;-74
2021/05/16 01:15:39;;;;;;;8.35;5.80;;;;;;;;;;4862382;29;20426;-76
2021/05/16 01:18:05;;;;;;;10.10;5.57;;;;;;;;;;4861258;29;20069;-75
2021/05/16 01:20:33;;;;;;;8.32;5.15;;;;;;;;;;4861446;29;20478;-68
2021/05/16 01:23:01;;;;;;;8.93;5.13;;;;;;;;;;4860724;29;20081;-59
2021/05/16 01:25:28;;;;;;;9.30;4.93;;;;;;;;;;4861265;29;20033;-65
2021/05/16 01:27:55;;;;;;;9.82;5.68;;;;;;;;;;4861356;29;20082;-71
2021/05/16 01:30:22;;;;;;;9.32;4.85;;;;;;;;;;4861209;29;20052;-74
2021/05/16 01:32:48;;;;;;;8.20;4.93;;;;;;;;;;4861367;29;20085;-74
2021/05/16 01:35:15;;;;;;;7.57;4.65;;;;;;;;;;4860957;29;20036;-70
2021/05/16 01:37:41;;;;;;;7.30;4.90;;;;;;;;;;4861256;29;20021;-72
2021/05/16 01:40:08;;;;;;;7.18;4.57;;;;;;;;;;4844615;29;20065;-65
2021/05/16 01:42:34;;;;;;;10.40;4.80;;;;;;;;;;4860879;29;20037;-64
2021/05/16 01:45:04;;;;;;;8.85;4.80;;;;;;;;;;4861068;29;20026;-70
2021/05/16 01:47:30;;;;;;;5.55;4.28;;;;;;;;;;4844276;29;20042;-68
2021/05/16 01:50:03;;;;;;;8.82;4.47;;;;;;;;;;4861123;29;20025;-65
2021/05/16 01:52:30;;;;;;;6.38;4.40;;;;;;;;;;4860517;29;20124;-67
2021/05/16 01:54:56;;;;;;;6.22;4.40;;;;;;;;;;4860870;29;20571;-70
2021/05/16 01:57:22;;;;;;;6.82;4.28;;;;;;;;;;4860655;29;20040;-68
2021/05/16 01:59:49;;;;;;;5.57;4.25;;;;;;;;;;4861102;29;20121;-66
2021/05/16 02:02:16;;;;;;;6.15;4.30;;;;;;;;;;4860448;29;20045;-71
2021/05/16 02:04:42;;;;;;;6.00;5.00;;;;;;;;;;4859793;29;20128;-61
2021/05/16 02:07:11;;;;;;;7.45;5.13;;;;;;;;;;4860562;29;20494;-72
2021/05/16 02:09:37;;;;;;;8.93;5.03;;;;;;;;;;4860379;29;20108;-71
2021/05/16 02:12:03;;;;;;;9.45;5.80;;;;;;;;;;4860418;29;20486;-64
2021/05/16 02:14:30;;;;;;;8.38;5.38;;;;;;;;;;4860273;29;20044;-68
2021/05/16 02:16:58;;;;;;;9.32;5.55;;;;;;;;;;4843513;29;20037;-71
2021/05/16 02:19:24;;;;;;;6.72;5.18;;;;;;;;;;4860442;29;20033;-73
2021/05/16 02:21:50;;;;;;;8.38;5.18;;;;;;;;;;4859614;29;20144;-72
2021/05/16 02:24:17;;;;;;;8.60;5.00;;;;;;;;;;4860485;29;20094;-73
2021/05/16 02:26:44;;;;;;;7.63;4.88;;;;;;;;;;4843488;29;20414;-70
2021/05/16 02:29:10;;;;;;;9.13;4.72;;;;;;;;;;4860098;29;20029;-59
2021/05/16 02:31:36;;;;;;;6.10;4.72;;;;;;;;;;4860124;29;20034;-74
2021/05/16 02:34:03;;;;;;;8.38;5.10;;;;;;;;;;4860055;29;20092;-74
2021/05/16 02:36:29;;;;;;;10.18;5.90;;;;;;;;;;4859754;29;20025;-74
2021/05/16 02:38:55;;;;;;;7.97;5.60;;;;;;;;;;4859885;29;20025;-73
2021/05/16 02:41:21;;;;;;;9.07;5.57;;;;;;;;;;4859854;29;20041;-71
2021/05/16 02:43:48;;;;;;;7.82;5.95;;;;;;;;;;4859829;29;20030;-73
2021/05/16 02:46:14;;;;;;;7.22;4.82;;;;;;;;;;4859543;29;20038;-58
2021/05/16 02:48:40;;;;;;;7.68;5.40;;;;;;;;;;4859840;29;20034;-73
2021/05/16 02:51:06;;;;;;;7.97;5.50;;;;;;;;;;4859636;29;20036;-73
2021/05/16 02:53:32;;;;;;;10.50;5.72;;;;;;;;;;4859849;29;20029;-67
2021/05/16 02:55:58;;;;;;;9.48;6.00;;;;;;;;;;4859724;29;20036;-67
2021/05/16 02:58:24;;;;;;;9.07;5.40;;;;;;;;;;4859551;29;20029;-71
2021/05/16 03:00:50;;;;;;;7.97;5.00;;;;;;;;;;4859753;29;20076;-61
2021/05/16 03:03:16;;;;;;;7.50;5.05;;;;;;;;;;4859655;29;20040;-70
2021/05/16 03:05:42;;;;;;;8.95;5.32;;;;;;;;;;4859630;29;20025;-69
2021/05/16 03:08:08;;;;;;;6.85;5.00;;;;;;;;;;4859410;29;20033;-68
2021/05/16 03:10:34;;;;;;;11.55;5.65;;;;;;;;;;4859434;29;20043;-68
2021/05/16 03:13:01;;;;;;;7.80;5.07;;;;;;;;;;4858977;29;20160;-73
2021/05/16 03:15:27;;;;;;;8.05;5.40;;;;;;;;;;4841997;29;20037;-62
2021/05/16 03:17:53;;;;;;;6.93;4.55;;;;;;;;;;4859021;29;20032;-67
2021/05/16 03:20:19;;;;;;;7.03;4.28;;;;;;;;;;4859174;29;20044;-66
2021/05/16 03:22:45;;;;;;;7.07;4.85;;;;;;;;;;4858858;29;20059;-69
2021/05/16 03:25:12;;;;;;;7.85;4.45;;;;;;;;;;4859149;29;20100;-72
2021/05/16 03:27:39;;;;;;;7.75;4.80;;;;;;;;;;4842618;29;20029;-73
2021/05/16 03:30:06;;;;;;;8.57;4.43;;;;;;;;;;4859216;29;20034;-73
2021/05/16 03:32:32;;;;;;;7.20;4.43;;;;;;;;;;4859444;29;20061;-67
2021/05/16 03:34:58;;;;;;;7.43;3.65;;;;;;;;;;4859195;29;20022;-60
2021/05/16 03:37:24;;;;;;;7.13;4.25;;;;;;;;;;4858963;29;20065;-59
2021/05/16 03:39:50;;;;;;;8.15;4.18;;;;;;;;;;4859001;29;20030;-59
2021/05/16 03:42:17;;;;;;;8.13;4.40;;;;;;;;;;4858860;29;20542;-71
2021/05/16 03:44:43;;;;;;;8.65;3.85;;;;;;;;;;4858980;29;20057;-74
2021/05/16 03:47:09;;;;;;;6.10;4.32;;;;;;;;;;4858805;29;20029;-71
2021/05/16 03:49:35;;;;;;;5.75;4.10;;;;;;;;;;4858811;29;20060;-74
2021/05/16 03:52:01;;;;;;;10.70;4.38;;;;;;;;;;4841979;29;20029;-59
2021/05/16 03:54:27;;;;;;;7.93;4.40;;;;;;;;;;4858688;29;20687;-62
2021/05/16 03:56:53;;;;;;;5.75;3.90;;;;;;;;;;4858950;29;20394;-69
2021/05/16 03:59:19;;;;;;;6.65;4.20;;;;;;;;;;4858383;29;20175;-72
2021/05/16 04:01:45;;;;;;;5.47;3.83;;;;;;;;;;4858694;29;20048;-64
2021/05/16 04:04:12;;;;;;;7.43;4.13;;;;;;;;;;4858812;29;20025;-74
2021/05/16 04:06:38;;;;;;;7.28;4.38;;;;;;;;;;4858566;29;20065;-74
2021/05/16 04:09:04;;;;;;;8.32;4.03;;;;;;;;;;4858570;29;20037;-68
2021/05/16 04:11:30;;;;;;;6.18;4.38;;;;;;;;;;4858539;29;20045;-65
2021/05/16 04:13:56;;;;;;;8.23;4.22;;;;;;;;;;4858608;29;20029;-70
2021/05/16 04:16:22;;;;;;;6.90;4.38;;;;;;;;;;4858707;29;20069;-73
2021/05/16 04:18:48;;;;;;;6.28;4.10;;;;;;;;;;4858585;29;20052;-70
2021/05/16 04:21:15;;;;;;;8.90;4.00;;;;;;;;;;4858254;29;20569;-72
2021/05/16 04:23:41;;;;;;;5.47;3.85;;;;;;;;;;4858132;29;20044;-75
2021/05/16 04:26:07;;;;;;;7.57;4.53;;;;;;;;;;4858933;29;20059;-74
2021/05/16 04:28:33;;;;;;;7.25;3.83;;;;;;;;;;4862073;29;20034;-67
2021/05/16 04:30:59;;;;;;;10.63;4.05;;;;;;;;;;4862121;29;20033;-72
2021/05/16 04:33:25;;;;;;;7.22;3.42;;;;;;;;;;4845258;29;20030;-73
2021/05/16 04:35:51;;;;;;;8.32;3.47;;;;;;;;;;4862029;29;20375;-72
2021/05/16 04:38:17;;;;;;;6.13;3.50;;;;;;;;;;4861671;29;20030;-72
2021/05/16 04:40:45;;;;;;;6.78;3.90;;;;;;;;;;4845277;29;20033;-74
2021/05/16 04:43:12;;;;;;;5.50;3.67;;;;;;;;;;4861832;29;20070;-64
2021/05/16 04:45:38;;;;;;;6.43;3.20;;;;;;;;;;4862023;29;20423;-72
2021/05/16 04:48:05;;;;;;;8.80;3.50;;;;;;;;;;4861554;29;20045;-67
2021/05/16 04:50:31;;;;;;;6.78;3.47;;;;;;;;;;4862140;29;20062;-71
2021/05/16 04:52:57;;;;;;;6.47;3.80;;;;;;;;;;4861524;29;20048;-68
2021/05/16 04:55:23;;;;;;;7.85;4.10;;;;;;;;;;4844989;29;20049;-72
2021/05/16 04:57:49;;;;;;;7.47;3.60;;;;;;;;;;4845164;29;20478;-74
2021/05/16 05:00:17;;;;;;;7.78;3.45;;;;;;;;;;4861768;29;20571;-75
2021/05/16 05:02:45;;;;;;;7.25;3.80;;;;;;;;;;4862132;29;20168;-75
2021/05/16 05:05:11;;;;;;;5.65;3.67;;;;;;;;;;4861668;29;20470;-71
2021/05/16 05:07:38;;;;;;;7.72;5.70;;;;;;;;;;4861635;29;20060;-72
2021/05/16 05:10:04;;;;;;;8.02;4.43;;;;;;;;;;4861593;29;20033;-75
2021/05/16 05:12:30;;;;;;;6.22;4.15;;;;;;;;;;4861195;29;20072;-72
2021/05/16 05:14:56;;;;;;;7.80;4.00;;;;;;;;;;4861616;29;20112;-73
2021/05/16 05:17:22;;;;;;;6.28;3.67;;;;;;;;;;4861367;29;20028;-75
2021/05/16 05:19:48;;;;;;;8.70;4.68;;;;;;;;;;4861189;29;20026;-74
2021/05/16 05:22:14;;;;;;;5.80;4.32;;;;;;;;;;4860777;29;20117;-61
2021/05/16 05:24:40;;;;;;;7.38;4.07;;;;;;;;;;4861236;29;20025;-75
2021/05/16 05:27:07;;;;;;;7.18;4.22;;;;;;;;;;4861427;29;20036;-75
2021/05/16 05:29:33;;;;;;;6.32;4.38;;;;;;;;;;4861167;29;20022;-70
2021/05/16 05:31:59;;;;;;;8.25;4.15;;;;;;;;;;4861352;29;20107;-66
2021/05/16 05:34:26;;;;;;;5.55;4.40;;;;;;;;;;4861406;29;20121;-73
2021/05/16 05:36:52;;;;;;;7.78;4.50;;;;;;;;;;4860974;29;20060;-69
2021/05/16 05:42:20;;;;;;;8.82;4.78;;;;;;;;;;4877083;29;20057;-64
2021/05/16 05:44:46;;;;;;;8.52;4.90;;;;;;;;;;4879414;29;20061;-60
2021/05/16 05:47:12;;;;;;;9.40;5.18;;;;;;;;;;4883166;29;20552;-62
2021/05/16 05:49:39;;;;;;;7.95;5.03;;;;;;;;;;4888472;29;20059;-63
2021/05/16 05:52:05;;;;;;;10.30;5.72;;;;;;;;;;4886095;29;20053;-67
2021/05/16 05:54:31;;;;;;;7.22;4.70;;;;;;;;;;4887861;29;20036;-67
2021/05/16 05:56:57;;;;;;;8.85;4.88;;;;;;;;;;4886661;29;20116;-71
2021/05/16 05:59:24;;;;;;;9.02;5.32;;;;;;;;;;4888221;29;20021;-76
2021/05/16 06:01:50;;;;;;;8.93;5.38;;;;;;;;;;4873228;29;20065;-59
2021/05/16 06:04:16;;;;;;;9.20;5.00;;;;;;;;;;4884536;29;20037;-73
2021/05/16 06:06:42;;;;;;;7.80;5.80;;;;;;;;;;4877606;29;20485;-66
2021/05/16 06:09:08;;;;;;;7.35;5.50;;;;;;;;;;4877131;29;20029;-76
2021/05/16 06:11:34;;;;;;;8.50;5.78;;;;;;;;;;4877287;29;20029;-79
2021/05/16 06:14:01;;;;;;;8.98;5.50;;;;;;;;;;4877053;29;20029;-59
2021/05/16 06:16:27;;;;;;;7.07;5.95;;;;;;;;;;4876748;29;20039;-74
2021/05/16 06:18:55;;;;;;;8.40;5.97;;;;;;;;;;4877168;29;20541;-77
2021/05/16 06:21:21;;;;;;;9.07;5.80;;;;;;;;;;4876976;29;20037;-71
2021/05/16 06:24:03;;;;;;;8.77;5.90;;;;;;;;;;4876672;29;20028;-74
2021/05/16 06:26:30;;;;;;;12.57;5.80;;;;;;;;;;4859766;29;20057;-68
2021/05/16 06:28:56;;;;;;;9.10;5.43;;;;;;;;;;4876548;29;20029;-75
2021/05/16 06:31:23;;;;;;;9.63;6.22;;;;;;;;;;4876959;29;20024;-66
2021/05/16 06:33:49;;;;;;;7.32;5.95;;;;;;;;;;4876648;29;20060;-71
2021/05/16 06:36:15;;;;;;;9.85;6.40;;;;;;;;;;4859900;29;20419;-74
2021/05/16 06:38:41;;;;;;;10.27;5.97;;;;;;;;;;4876804;29;20440;-72
2021/05/16 06:41:07;;;;;;;9.80;6.07;;;;;;;;;;4876479;29;20539;-66
2021/05/16 06:43:33;;;;;;;10.77;5.97;;;;;;;;;;4876142;29;20400;-68
2021/05/16 06:45:59;;;;;;;8.02;6.25;;;;;;;;;;4860153;29;20466;-59
2021/05/16 06:48:26;;;;;;;8.95;5.63;;;;;;;;;;4875719;29;20474;-74
2021/05/16 06:50:52;;;;;;;10.05;6.20;;;;;;;;;;4874909;29;20139;-65
2021/05/16 06:53:18;;;;;;;10.38;6.07;;;;;;;;;;4875139;29;20027;-58
2021/05/16 06:55:45;;;;;;;9.98;6.43;;;;;;;;;;5026095;23;20056;-57
2021/05/16 06:58:11;;;;;;;10.07;7.10;;;;;;;;;;4908361;29;20055;-57
2021/05/16 07:00:37;;;;;;;11.10;6.65;;;;;;;;;;4898918;29;20087;-69
2021/05/16 07:03:03;;;;;;;9.82;6.85;;;;;;;;;;4895560;29;20040;-63
2021/05/16 07:05:29;;;;;;;10.63;6.78;;;;;;;;;;4895793;29;20024;-65
2021/05/16 07:07:55;;;;;;;10.55;6.60;;;;;;;;;;4896337;29;20067;-67
2021/05/16 07:10:22;;;;;;;11.88;7.47;;;;;;;;;;4895461;29;20032;-63
2021/05/16 07:12:48;;;;;;;12.60;7.68;;;;;;;;;;4894846;29;20069;-66
2021/05/16 07:15:16;;;;;;;11.10;7.13;;;;;;;;;;4895474;29;20028;-73
2021/05/16 07:17:42;;;;;;;10.45;7.38;;;;;;;;;;4895298;29;20021;-57
2021/05/16 07:20:08;;;;;;;10.82;7.28;;;;;;;;;;4907761;29;20044;-66
2021/05/16 07:22:34;;;;;;;13.57;8.10;;;;;;;;;;4914774;29;20103;-70
2021/05/16 07:25:00;;;;;;;11.10;7.90;;;;;;;;;;4913756;29;20034;-59
2021/05/16 07:27:26;;;;;;;9.80;7.10;;;;;;;;;;4914884;29;20039;-74
2021/05/16 07:29:53;;;;;;;9.80;6.90;;;;;;;;;;4914460;29;20063;-67
2021/05/16 07:32:20;;;;;;;10.95;8.70;;;;;;;;;;4914347;29;20054;-65
2021/05/16 07:34:46;;;;;;;9.85;7.55;;;;;;;;;;4914421;29;20117;-57
2021/05/16 07:37:12;;;;;;;10.10;7.97;;;;;;;;;;4914416;29;20043;-67
2021/05/16 07:39:38;;;;;;;11.82;8.05;;;;;;;;;;4896468;29;20040;-57
2021/05/16 07:42:04;;;;;;;10.82;7.13;;;;;;;;;;4895423;29;20044;-57
2021/05/16 07:44:30;;;;;;;10.98;7.68;;;;;;;;;;4895583;29;20039;-57
2021/05/16 07:46:56;;;;;;;10.65;7.05;;;;;;;;;;4895079;29;20040;-67
2021/05/16 07:49:22;;;;;;;11.35;7.60;;;;;;;;;;4895696;29;20044;-56
2021/05/16 07:51:48;;;;;;;11.48;8.43;;;;;;;;;;4895346;29;20025;-71
2021/05/16 07:54:14;;;;;;;11.43;7.88;;;;;;;;;;4895034;29;20476;-64
2021/05/16 07:56:40;;;;;;;11.57;7.00;;;;;;;;;;4902606;29;20609;-58
2021/05/16 07:59:06;;;;;;;9.13;7.05;;;;;;;;;;4902296;29;20433;-58
2021/05/16 08:01:32;;;;;;;8.50;6.18;;;;;;;;;;4885900;29;20047;-58
2021/05/16 08:03:58;;;;;;;8.65;6.45;;;;;;;;;;4902734;29;20043;-57
2021/05/16 08:06:25;;;;;;;9.38;6.63;;;;;;;;;;4902684;29;20028;-57
2021/05/16 08:08:51;;;;;;;8.88;6.13;;;;;;;;;;4904811;29;20468;-58
2021/05/16 08:11:17;;;;;;;7.72;4.57;;;;;;;;;;4899939;29;20028;-62
2021/05/16 08:13:43;;;;;;;7.25;4.50;;;;;;;;;;4904716;29;20048;-62
2021/05/16 08:16:09;;;;;;;6.45;4.10;;;;;;;;;;4899864;29;20106;-58
2021/05/16 08:18:35;;;;;;;10.13;4.75;;;;;;;;;;4902241;29;20027;-67
2021/05/16 08:21:01;;;;;;;7.38;4.80;;;;;;;;;;4904956;29;20547;-59
2021/05/16 08:23:27;;;;;;;8.80;3.70;;;;;;;;;;4902778;29;20080;-56
2021/05/16 08:25:53;;;;;;;7.68;4.18;;;;;;;;;;4903061;29;20280;-58
2021/05/16 08:28:19;;;;;;;7.15;4.10;;;;;;;;;;4902788;29;20458;-62
2021/05/16 08:30:46;;;;;;;7.43;3.85;;;;;;;;;;4903960;29;20083;-61
2021/05/16 08:33:12;;;;;;;6.32;3.78;;;;;;;;;;4909786;29;20052;-58
2021/05/16 08:35:38;;;;;;;9.25;4.30;;;;;;;;;;4913347;29;20088;-58
2021/05/16 08:38:04;;;;;;;6.03;4.22;;;;;;;;;;4913778;29;20087;-65
2021/05/16 08:40:30;;;;;;;6.78;4.25;;;;;;;;;;4913513;29;20047;-72
2021/05/16 08:42:57;;;;;;;6.82;3.38;;;;;;;;;;4913790;29;20034;-64
2021/05/16 08:45:23;;;;;;;6.45;3.30;;;;;;;;;;4906904;29;20032;-69
2021/05/16 08:47:49;;;;;;;8.23;3.80;;;;;;;;;;4902960;29;20639;-70
2021/05/16 08:50:17;;;;;;;6.78;2.92;;;;;;;;;;4902889;29;20104;-65
2021/05/16 08:52:43;;;;;;;7.72;3.58;;;;;;;;;;4902700;29;20021;-61
2021/05/16 08:55:11;;;;;;;5.90;3.65;;;;;;;;;;4901255;29;20044;-65
2021/05/16 08:57:37;;;;;;;5.13;3.00;;;;;;;;;;4895214;29;20126;-71
2021/05/16 09:00:22;;;;;;;5.38;3.08;;;;;;;;;;4894499;29;20034;-72
2021/05/16 09:03:07;;;;;;;5.68;3.90;;;;;;;;;;4894669;29;20123;-72
2021/05/16 09:05:36;;;;;;;7.93;3.83;;;;;;;;;;4894236;29;20025;-73
2021/05/16 09:08:04;;;;;;;8.20;4.72;;;;;;;;;;4894508;29;20494;-66
2021/05/16 09:10:30;;;;;;;7.47;4.38;;;;;;;;;;4894641;29;20396;-65
2021/05/16 09:13:16;;;;;;;8.65;4.32;;;;;;;;;;4895993;29;20504;-62
2021/05/16 09:15:43;;;;;;;7.22;4.40;;;;;;;;;;4896652;29;20033;-68
2021/05/16 09:18:09;;;;;;;9.88;4.80;;;;;;;;;;4897508;29;20124;-74
2021/05/16 09:20:35;;;;;;;8.63;3.58;;;;;;;;;;4898014;29;20032;-67
2021/05/16 09:23:01;;;;;;;5.22;3.38;;;;;;;;;;4897799;29;20037;-62
2021/05/16 09:25:31;;;;;;;7.57;3.38;;;;;;;;;;4897475;29;20033;-71
2021/05/16 09:28:06;;;;;;;5.60;2.75;;;;;;;;;;4880865;29;20127;-74
2021/05/16 09:30:33;;;;;;;6.38;3.05;;;;;;;;;;4897889;29;20031;-69
2021/05/16 09:32:59;;;;;;;6.28;2.67;;;;;;;;;;4897688;29;20029;-67
2021/05/16 09:35:32;;;;;;;7.63;2.42;;;;;;;;;;4897900;29;20080;-74
2021/05/16 09:38:05;;;;;;;5.32;2.20;;;;;;;;;;4897353;29;20029;-73
2021/05/16 09:40:37;;;;;;;5.13;2.30;;;;;;;;;;4897424;29;20047;-73
2021/05/16 09:43:03;;;;;;;;;;;;;;;;;;4897649;29;20050;-74
2021/05/16 09:45:40;;;;;;;6.35;2.35;;;;;;;;;;4897452;29;20419;-74
2021/05/16 09:48:28;;;;;;;3.28;1.92;;;;;;;;;;4897168;29;20020;-74
2021/05/16 09:51:07;;;;;;;6.05;2.65;;;;;;;;;;4896061;29;20063;-75
2021/05/16 09:53:33;;;;;;;7.45;2.20;;;;;;;;;;4897504;29;20469;-74
2021/05/16 09:56:14;;;;;;;6.22;2.13;;;;;;;;;;4896393;29;20535;-74
2021/05/16 09:58:40;;;;;;;2.70;1.33;;;;;;;;;;4895831;29;20120;-72
2021/05/16 10:01:08;;;;;;;3.40;1.40;;;;;;;;;;4897503;29;20043;-74
2021/05/16 10:03:35;;;;;;;4.03;1.50;;;;;;;;;;4896941;29;20072;-75
2021/05/16 10:06:01;;;;;;;4.15;1.55;;;;;;;;;;4897201;29;20426;-64
2021/05/16 10:08:28;;;;;;;3.90;1.23;;;;;;;;;;4896785;29;20104;-61
2021/05/16 10:10:54;;;;;;;3.35;1.23;;;;;;;;;;4896710;29;20036;-62
2021/05/16 10:13:21;;;;;;;3.22;1.20;;;;;;;;;;4896539;29;20071;-60
2021/05/16 10:15:47;;;;;;;3.28;1.30;;;;;;;;;;4897038;29;20037;-71
2021/05/16 10:18:15;;;;;;;3.40;1.40;;;;;;;;;;4895396;29;20032;-66
2021/05/16 10:20:42;;;;;;;3.33;1.80;;;;;;;;;;4897097;29;20120;-74
2021/05/16 10:23:10;;;;;;;2.58;1.30;;;;;;;;;;4896580;29;20025;-69
2021/05/16 10:25:46;;;;;;;5.32;1.50;;;;;;;;;;4895407;29;20054;-65
2021/05/16 10:28:16;;;;;;;3.33;1.20;;;;;;;;;;4896971;29;20029;-70
2021/05/16 10:31:00;;;;;;;2.63;1.20;;;;;;;;;;4896584;29;20032;-73
2021/05/16 10:33:36;;;;;;;2.38;1.30;;;;;;;;;;4895289;29;20119;-75
2021/05/16 10:36:03;;;;;;;2.15;1.20;;;;;;;;;;4896603;29;20028;-69
2021/05/16 10:38:36;;;;;;;3.80;1.35;;;;;;;;;;4895110;29;20392;-72
2021/05/16 10:41:18;;;;;;;5.68;1.20;;;;;;;;;;4896516;29;20111;-62
2021/05/16 10:43:44;;;;;;;3.25;1.13;;;;;;;;;;4896256;29;20025;-68
2021/05/16 10:46:28;;;;;;;4.30;1.38;;;;;;;;;;4896365;29;20063;-75
2021/05/16 10:49:15;;;;;;;3.10;1.48;;;;;;;;;;4895048;29;20051;-75
2021/05/16 10:51:41;;;;;;;2.15;1.30;;;;;;;;;;4886675;29;20064;-71
2021/05/16 10:54:26;;;;;;;9.48;1.50;;;;;;;;;;4896079;29;20063;-65
2021/05/16 10:57:11;;;;;;;2.45;1.50;;;;;;;;;;4896392;29;20071;-74
2021/05/16 10:59:38;;;;;;;3.95;1.75;;;;;;;;;;4895937;29;20084;-63
2021/05/16 11:02:04;;;;;;;4.05;1.85;;;;;;;;;;4895918;29;20072;-73
2021/05/16 11:04:47;;;;;;;4.53;1.83;;;;;;;;;;4896108;29;20033;-65
2021/05/16 11:07:31;;;;;;;6.13;2.03;;;;;;;;;;4895973;29;20037;-59
2021/05/16 11:10:16;;;;;;;3.10;1.75;;;;;;;;;;4895938;29;20096;-70
2021/05/16 11:12:42;;;;;;;5.78;1.80;;;;;;;;;;4895754;29;20047;-64
2021/05/16 11:15:09;;;;;;;4.50;1.90;;;;;;;;;;4895621;29;20036;-65
2021/05/16 11:17:35;;;;;;;7.28;2.42;;;;;;;;;;4895665;29;20064;-69
2021/05/16 11:20:01;;;;;;;3.67;1.90;;;;;;;;;;4895600;29;20032;-65
2021/05/16 11:22:27;;;;;;;4.05;1.63;;;;;;;;;;4895844;29;20040;-65
2021/05/16 11:24:53;;;;;;;6.10;2.70;;;;;;;;;;4895946;29;20032;-68
2021/05/16 11:27:21;;;;;;;3.50;2.30;;;;;;;;;;4895123;29;20042;-65
2021/05/16 11:29:51;;;;;;;7.93;2.88;;;;;;;;;;4895443;29;20020;-69
2021/05/16 11:32:19;;;;;;;5.28;2.75;;;;;;;;;;4894608;29;20417;-63
2021/05/16 11:34:45;;;;;;;3.85;2.28;;;;;;;;;;4894133;29;20067;-60
2021/05/16 11:37:15;;;;;;;5.03;2.10;;;;;;;;;;4893602;29;20084;-68
2021/05/16 11:39:41;;;;;;;3.80;2.30;;;;;;;;;;4895089;29;20497;-75
2021/05/16 11:42:07;;;;;;;5.95;2.00;;;;;;;;;;4896025;29;20040;-65
2021/05/16 11:44:33;;;;;;;3.80;1.92;;;;;;;;;;4894580;29;20033;-66
2021/05/16 11:47:00;;;;;;;4.03;1.92;;;;;;;;;;4893496;29;20797;-59
2021/05/16 11:49:28;;;;;;;6.65;2.20;;;;;;;;;;4891121;29;20033;-68
2021/05/16 11:51:58;;;;;;;4.70;2.38;;;;;;;;;;4895821;29;20025;-64
2021/05/16 11:54:25;;;;;;;4.07;2.50;;;;;;;;;;4895189;29;20100;-69
2021/05/16 11:56:51;;;;;;;5.68;2.67;;;;;;;;;;4895148;29;20505;-72
2021/05/16 11:59:18;;;;;;;7.05;2.78;;;;;;;;;;4895136;29;20139;-71
2021/05/16 12:01:47;;;;;;;5.60;3.20;;;;;;;;;;4895129;29;20521;-74
2021/05/16 12:04:17;;;;;;;6.72;3.83;;;;;;;;;;4895110;29;20036;-64
2021/05/16 12:06:47;;;;;;;13.80;2.80;;;;;;;;;;4895137;29;20035;-75
2021/05/16 12:09:18;;;;;;;3.35;1.55;;;;;;;;;;4903308;29;20032;-71
2021/05/16 12:11:48;;;;;;;6.63;2.20;;;;;;;;;;4912870;29;20442;-63
2021/05/16 12:14:15;;;;;;;8.57;2.90;;;;;;;;;;4913758;29;20036;-69
2021/05/16 12:16:51;;;;;;;4.68;2.20;;;;;;;;;;4914025;29;20536;-65
2021/05/16 12:19:21;;;;;;;4.70;2.08;;;;;;;;;;4913964;29;20035;-72
2021/05/16 12:21:54;;;;;;;5.03;2.47;;;;;;;;;;4913875;29;20048;-64
2021/05/16 12:24:22;;;;;;;6.03;2.85;;;;;;;;;;4912194;29;20460;-62
2021/05/16 12:26:48;;;;;;;5.47;2.05;;;;;;;;;;4912031;29;20028;-70
2021/05/16 12:29:15;;;;;;;3.88;1.85;;;;;;;;;;4913140;29;20075;-70
2021/05/16 12:31:41;;;;;;;3.30;2.00;;;;;;;;;;4913793;29;20042;-67
2021/05/16 12:34:08;;;;;;;4.03;1.95;;;;;;;;;;4908274;29;20133;-62
2021/05/16 12:36:58;;;;;;;5.55;2.80;;;;;;;;;;4903940;29;20028;-67
2021/05/16 12:39:33;;;;;;;21.58;3.50;;;;;;;;;;4901764;29;20067;-69
2021/05/16 12:41:59;;;;;;;20.05;3.50;;;;;;;;;;4902376;29;20512;-76
2021/05/16 12:44:26;;;;;;;7.38;2.35;;;;;;;;;;4902538;29;20115;-73
2021/05/16 12:46:53;;;;;;;7.43;2.08;;;;;;;;;;4903882;29;20396;-61
2021/05/16 12:49:20;;;;;;;5.70;2.50;;;;;;;;;;4905602;29;20651;-61
2021/05/16 12:52:13;;;;;;;13.13;3.15;;;;;;;;;;4906077;29;20468;-64
2021/05/16 12:54:39;;;;;;;11.25;3.80;;;;;;;;;;4901242;29;20437;-65
2021/05/16 12:57:14;;;;;;;17.33;10.07;;;;;;;;;;4906627;29;20099;-63
2021/05/16 12:59:41;;;;;;;6.43;2.58;;;;;;;;;;4907251;29;20024;-71
2021/05/16 13:02:12;;;;;;;17.75;9.35;;;;;;;;;;4905772;29;20437;-77
2021/05/16 13:05:10;;;;;;;14.52;10.30;;;;;;;;;;4905981;29;20028;-66
2021/05/16 13:07:38;;;;;;;9.27;5.15;;;;;;;;;;4849331;29;20175;-65
2021/05/16 13:10:22;;;;;;;8.93;4.13;;;;;;;;;;4839562;29;20121;-63
2021/05/16 13:12:48;;;;;;;8.13;4.30;;;;;;;;;;4849452;29;20058;-59
2021/05/16 13:15:14;;;;;;;11.77;4.43;;;;;;;;;;4846577;29;20058;-60
2021/05/16 13:17:40;;;;;;;6.25;2.70;;;;;;;;;;4848223;29;20177;-60
2021/05/16 13:20:19;;;;;;;6.05;2.40;;;;;;;;;;4848028;29;20022;-67
2021/05/16 13:22:45;;;;;;;8.07;2.03;;;;;;;;;;4833428;29;20037;-59
2021/05/16 13:25:14;;;;;;;6.63;2.88;;;;;;;;;;4846653;29;20040;-59
2021/05/16 13:27:41;;;;;;;5.25;2.80;;;;;;;;;;4847026;29;20026;-60
2021/05/16 13:30:08;;;;;;;9.88;3.65;;;;;;;;;;4855259;29;20069;-60
2021/05/16 13:32:34;;;;;;;10.70;4.35;;;;;;;;;;4856492;29;20049;-58
2021/05/16 13:35:01;;;;;;;8.23;3.00;;;;;;;;;;4844598;29;20034;-59
2021/05/16 13:37:27;;;;;;;7.45;2.55;;;;;;;;;;4846251;29;20052;-58
2021/05/16 13:39:54;;;;;;;7.50;1.80;;;;;;;;;;4843174;29;20080;-84
2021/05/16 13:42:23;;;;;;;5.88;1.75;;;;;;;;;;4853185;29;20506;-58
2021/05/16 13:44:50;;;;;;;6.85;2.13;;;;;;;;;;4900317;29;20055;-58
2021/05/16 13:47:16;;;;;;;3.50;1.23;;;;;;;;;;4899600;29;20055;-79
2021/05/16 13:49:42;;;;;;;4.85;1.40;;;;;;;;;;4903615;29;20028;-59
2021/05/16 13:52:08;;;;;;;2.42;1.10;;;;;;;;;;4905603;29;20635;-61
2021/05/16 13:54:34;;;;;;;4.05;1.48;;;;;;;;;;4905396;29;20488;-59
2021/05/16 13:57:00;;;;;;;4.03;1.33;;;;;;;;;;4905471;29;20032;-61
2021/05/16 13:59:26;;;;;;;3.88;1.60;;;;;;;;;;4904241;29;20025;-59
2021/05/16 14:01:53;;;;;;;7.40;1.98;;;;;;;;;;4907058;29;20068;-69
2021/05/16 14:04:19;;;;;;;7.57;2.70;;;;;;;;;;4905311;29;20060;-59
2021/05/16 14:06:45;;;;;;;4.65;1.77;;;;;;;;;;4906399;29;20036;-60
2021/05/16 14:09:12;;;;;;;9.10;3.30;;;;;;;;;;4905897;29;20048;-60
2021/05/16 14:11:39;;;;;;;15.48;4.30;;;;;;;;;;4905426;29;20032;-76
2021/05/16 14:14:06;;;;;;;13.02;4.65;;;;;;;;;;4903609;29;20505;-78
2021/05/16 14:16:33;;;;;;;13.02;5.07;;;;;;;;;;4906088;29;20067;-60
2021/05/16 14:19:00;;;;;;;7.72;2.22;;;;;;;;;;4903752;29;20025;-60
2021/05/16 14:21:26;;;;;;;16.50;5.85;;;;;;;;;;4913030;29;20028;-69
2021/05/16 14:23:52;;;;;;;4.90;1.98;;;;;;;;;;4915608;29;20021;-76
2021/05/16 14:26:18;;;;;;;2.20;1.05;;;;;;;;;;4915823;29;20111;-60
2021/05/16 14:28:45;;;;;;;13.85;4.18;;;;;;;;;;4915411;29;20040;-60
2021/05/16 14:31:11;;;;;;;3.53;1.40;;;;;;;;;;4915545;29;20044;-60
2021/05/16 14:33:38;;;;;;;9.75;3.45;;;;;;;;;;4915748;29;20091;-69
2021/05/16 14:36:04;;;;;;;8.75;3.13;;;;;;;;;;4915420;29;20025;-60
2021/05/16 14:38:30;;;;;;;6.35;2.33;;;;;;;;;;4914958;29;20032;-63
2021/05/16 14:40:56;;;;;;;12.45;4.63;;;;;;;;;;4914991;29;20040;-63
2021/05/16 14:43:22;;;;;;;8.80;3.33;;;;;;;;;;4915317;29;20032;-70
2021/05/16 14:45:49;;;;;;;16.60;5.40;;;;;;;;;;4915062;29;20031;-60